Time;durP1;ratioP1;P1;durP2;ratioP2;P2;SDS_P1;SDS_P2;PMS_P1;PMS_P2;Temp;Humidity;BMP_temperature;BMP_pressure;BME280_temperature;BME280_humidity;BME280_pressure;Samples;Min_cycle;Max_cycle;Signal;HPM_P1;HPM_P2
2023/08/04 00:00:06;;;;;;;3.03;1.27;;;;;;;18.43;83.33;99323.19;6096942;23;20021;-81
2023/08/04 00:02:33;;;;;;;9.82;1.65;;;;;;;18.44;83.70;99322.16;6120677;23;20048;-81
2023/08/04 00:05:00;;;;;;;2.28;1.73;;;;;;;18.42;83.85;99318.03;6144713;23;20021;-81
2023/08/04 00:07:27;;;;;;;2.47;1.38;;;;;;;18.43;84.10;99317.81;6119696;23;20029;-81
2023/08/04 00:09:54;;;;;;;5.10;1.35;;;;;;;18.42;84.07;99315.34;6119579;23;20021;-81
2023/08/04 00:12:21;;;;;;;2.78;1.40;;;;;;;18.42;84.06;99320.72;6096016;23;20450;-81
2023/08/04 00:14:48;;;;;;;6.32;1.27;;;;;;;18.39;84.16;99308.50;6096452;23;20068;-81
2023/08/04 00:17:15;;;;;;;1.77;1.40;;;;;;;18.39;84.32;99319.25;6120215;23;20092;-81
2023/08/04 00:19:42;;;;;;;5.68;1.30;;;;;;;18.37;83.90;99317.78;6095561;23;20473;-83
2023/08/04 00:22:09;;;;;;;4.65;1.63;;;;;;;18.37;84.26;99320.47;6120938;23;20021;-81
2023/08/04 00:24:35;;;;;;;4.03;1.75;;;;;;;18.35;84.09;99315.28;6119870;23;20032;-82
2023/08/04 00:27:02;;;;;;;3.35;1.35;;;;;;;18.32;84.02;99321.06;6119806;23;20101;-81
2023/08/04 00:29:29;;;;;;;3.65;1.33;;;;;;;18.33;83.95;99322.72;6146014;23;20080;-80
2023/08/04 00:31:56;;;;;;;4.15;1.23;;;;;;;18.30;83.97;99328.50;6119779;23;20057;-81
2023/08/04 00:34:23;;;;;;;6.28;1.60;;;;;;;18.28;83.84;99324.34;6119817;23;20033;-82
2023/08/04 00:36:50;;;;;;;2.00;1.15;;;;;;;18.26;83.68;99326.38;6120492;23;20074;-81
2023/08/04 00:39:33;;;;;;;2.75;1.38;;;;;;;18.27;83.55;99331.56;5012923;27;21644;-81
2023/08/04 00:42:00;;;;;;;3.20;1.52;;;;;;;18.26;83.60;99326.38;5003183;28;20489;-81
2023/08/04 00:44:27;;;;;;;4.57;1.60;;;;;;;18.26;83.20;99329.06;5020158;28;20045;-82
2023/08/04 00:46:53;;;;;;;2.95;1.50;;;;;;;18.28;83.21;99329.72;5034356;28;20129;-81
2023/08/04 00:49:20;;;;;;;4.53;1.48;;;;;;;18.27;83.18;99336.09;5024595;28;20378;-81
2023/08/04 00:51:47;;;;;;;5.03;1.23;;;;;;;18.26;83.17;99321.84;5017800;28;20104;-82
2023/08/04 00:54:15;;;;;;;6.80;1.10;;;;;;;18.23;83.33;99317.69;5028311;28;20050;-81
2023/08/04 00:56:42;;;;;;;3.72;1.20;;;;;;;18.21;83.03;99313.53;5000089;28;20034;-81
2023/08/04 00:59:08;;;;;;;4.28;2.38;;;;;;;18.20;83.00;99320.78;5031616;28;20052;-81
2023/08/04 01:01:37;;;;;;;2.85;1.10;;;;;;;18.15;82.92;99317.84;5016294;28;20112;-82
2023/08/04 01:04:04;;;;;;;4.53;1.00;;;;;;;18.12;82.81;99320.94;5011942;28;20046;-81
2023/08/04 01:06:55;;;;;;;3.85;1.10;;;;;;;18.05;82.86;99322.75;4997076;28;20062;-81
2023/08/04 01:09:51;;;;;;;2.47;1.30;;;;;;;18.05;82.81;99333.50;4968576;28;20050;-81
2023/08/04 01:12:41;;;;;;;3.85;1.20;;;;;;;17.98;82.72;99333.44;4997621;28;20482;-81
2023/08/04 01:15:09;;;;;;;2.67;1.30;;;;;;;18.07;82.73;99325.25;5015480;28;20099;-81
2023/08/04 01:17:36;;;;;;;3.33;1.17;;;;;;;18.06;82.82;99331.63;5019750;28;20049;-81
2023/08/04 01:20:04;;;;;;;4.05;1.45;;;;;;;18.06;82.84;99328.94;5011508;28;20093;-81
2023/08/04 01:22:32;;;;;;;2.88;1.55;;;;;;;18.05;82.98;99330.81;5003728;28;20124;-81
2023/08/04 01:24:59;;;;;;;3.45;1.27;;;;;;;18.04;82.68;99336.38;5016951;28;20050;-81
2023/08/04 01:27:44;;;;;;;10.25;1.10;;;;;;;17.91;83.07;99342.47;5032962;28;20397;-81
2023/08/04 01:30:19;;;;;;;6.07;1.20;;;;;;;17.95;82.81;99346.44;5036533;28;20041;-81
2023/08/04 01:32:46;;;;;;;3.97;1.40;;;;;;;18.00;82.97;99350.19;5017159;28;20052;-81
2023/08/04 01:35:14;;;;;;;4.38;1.20;;;;;;;18.02;82.59;99346.50;5034586;28;20066;-81
2023/08/04 01:37:45;;;;;;;2.10;1.35;;;;;;;18.00;82.90;99355.56;5003317;28;20125;-81
2023/08/04 01:40:13;;;;;;;3.60;1.10;;;;;;;17.99;83.03;99347.72;5050125;28;20057;-82
2023/08/04 01:42:40;;;;;;;2.05;1.00;;;;;;;17.98;82.67;99349.56;5014559;28;20048;-81
2023/08/04 01:45:07;;;;;;;2.65;1.38;;;;;;;17.98;82.70;99346.88;5003116;28;20624;-81
2023/08/04 01:47:34;;;;;;;3.10;1.30;;;;;;;18.00;82.51;99342.13;5015114;28;20077;-82
2023/08/04 01:50:02;;;;;;;1.88;0.93;;;;;;;18.01;82.63;99345.66;4990300;28;20042;-81
2023/08/04 01:52:29;;;;;;;6.05;1.25;;;;;;;18.00;82.71;99346.69;4967627;28;20394;-81
2023/08/04 01:54:57;;;;;;;1.35;1.20;;;;;;;18.00;83.12;99346.69;4968327;28;20049;-81
2023/08/04 01:57:24;;;;;;;5.57;1.63;;;;;;;17.99;83.20;99340.50;4987462;28;20105;-81
2023/08/04 01:59:50;;;;;;;4.95;1.30;;;;;;;18.00;83.56;99344.00;4967715;28;20125;-81
2023/08/04 02:02:17;;;;;;;3.63;1.33;;;;;;;18.02;83.75;99346.50;4959860;28;20038;-82
2023/08/04 02:04:44;;;;;;;2.55;0.93;;;;;;;17.98;83.90;99343.38;4978262;28;20603;-81
2023/08/04 02:07:11;;;;;;;3.60;1.15;;;;;;;17.98;83.94;99348.72;4982219;28;20046;-81
2023/08/04 02:09:38;;;;;;;2.85;1.20;;;;;;;17.99;83.76;99353.09;4957006;28;20855;-82
2023/08/04 02:12:05;;;;;;;4.15;1.30;;;;;;;17.99;84.08;99348.56;5037598;28;20468;-81
2023/08/04 02:14:33;;;;;;;4.95;1.27;;;;;;;18.00;84.77;99352.06;5011029;28;20100;-81
2023/08/04 02:17:00;;;;;;;4.70;1.50;;;;;;;17.99;85.05;99348.56;4988639;28;20373;-82
2023/08/04 02:19:37;;;;;;;3.80;1.27;;;;;;;17.98;85.30;99348.72;5003975;28;20512;-81
2023/08/04 02:22:04;;;;;;;2.28;1.20;;;;;;;17.98;85.83;99352.25;5004670;28;20044;-81
2023/08/04 02:24:31;;;;;;;5.97;1.40;;;;;;;17.98;86.09;99346.88;5000858;28;20610;-81
2023/08/04 02:26:58;;;;;;;2.85;1.08;;;;;;;18.00;86.06;99347.50;5022626;28;20046;-81
2023/08/04 02:29:25;;;;;;;6.00;1.00;;;;;;;18.00;86.24;99349.38;5005730;28;20050;-81
2023/08/04 02:31:52;;;;;;;2.00;1.10;;;;;;;18.01;86.31;99351.03;4985905;28;20564;-81
2023/08/04 02:34:19;;;;;;;4.55;1.48;;;;;;;18.00;86.24;99347.50;5021071;28;20490;-81
2023/08/04 02:36:46;;;;;;;3.50;1.50;;;;;;;18.02;86.50;99344.66;5005442;28;20045;-81
2023/08/04 02:39:13;;;;;;;4.50;1.30;;;;;;;18.02;86.61;99349.19;5019472;28;20062;-82
2023/08/04 02:41:40;;;;;;;1.48;1.35;;;;;;;18.01;86.47;99345.66;5019429;28;20046;-81
2023/08/04 02:44:07;;;;;;;6.47;1.15;;;;;;;18.02;86.74;99347.31;5006878;28;20553;-81
2023/08/04 02:46:34;;;;;;;4.45;1.20;;;;;;;18.04;87.00;99347.97;5008393;28;20042;-81
2023/08/04 02:49:01;;;;;;;2.10;1.30;;;;;;;18.04;86.79;99347.97;4986742;28;20046;-81
2023/08/04 02:51:30;;;;;;;4.07;1.17;;;;;;;18.06;86.85;99347.75;4987009;28;20121;-81
2023/08/04 02:53:56;;;;;;;3.00;1.15;;;;;;;18.05;87.14;99355.00;5021339;28;20041;-82
2023/08/04 02:56:23;;;;;;;3.25;1.17;;;;;;;18.05;87.46;99362.22;5020447;28;20049;-81
2023/08/04 02:58:50;;;;;;;1.85;1.02;;;;;;;18.06;87.16;99358.50;5000491;28;20049;-81
2023/08/04 03:01:17;;;;;;;3.92;1.48;;;;;;;18.03;87.42;99356.22;5000274;28;20125;-81
2023/08/04 03:03:44;;;;;;;1.85;1.33;;;;;;;18.02;87.59;99358.06;5004901;28;20046;-81
2023/08/04 03:06:10;;;;;;;3.72;1.52;;;;;;;18.03;87.53;99354.34;4985613;28;20041;-81
2023/08/04 03:08:37;;;;;;;2.58;1.20;;;;;;;18.02;87.66;99358.06;5035581;28;20061;-81
2023/08/04 03:11:10;;;;;;;3.67;1.38;;;;;;;18.00;87.77;99352.88;5037881;28;20555;-81
2023/08/04 03:13:38;;;;;;;2.95;1.10;;;;;;;18.02;87.53;99358.06;5030665;28;20046;-81
2023/08/04 03:16:05;;;;;;;3.20;1.20;;;;;;;18.01;87.42;99359.09;5035302;28;20052;-81
2023/08/04 03:18:31;;;;;;;2.75;1.30;;;;;;;18.00;87.74;99357.44;5034280;28;20129;-81
2023/08/04 03:21:02;;;;;;;4.20;1.25;;;;;;;18.00;88.04;99362.81;4999257;28;20060;-81
2023/08/04 03:23:29;;;;;;;7.00;1.00;;;;;;;17.99;87.93;99359.31;5015473;28;20607;-81
2023/08/04 03:25:56;;;;;;;5.55;1.60;;;;;;;17.97;87.91;99361.34;5017322;28;20489;-81
2023/08/04 03:28:23;;;;;;;6.40;2.17;;;;;;;17.97;87.91;99369.41;5031555;28;20076;-81
2023/08/04 03:30:49;;;;;;;4.75;1.50;;;;;;;17.96;87.86;99361.53;4970400;28;20042;-82
2023/08/04 03:33:16;;;;;;;4.13;1.40;;;;;;;17.97;87.99;99365.88;4985800;28;20065;-81
2023/08/04 03:35:43;;;;;;;3.55;1.40;;;;;;;17.97;88.47;99372.09;5014004;28;20048;-81
2023/08/04 03:38:11;;;;;;;5.47;1.13;;;;;;;17.96;88.55;99370.44;4996919;28;20093;-81
2023/08/04 03:40:38;;;;;;;1.83;1.08;;;;;;;17.95;88.61;99374.13;5028455;28;20096;-82
2023/08/04 03:43:05;;;;;;;4.88;1.30;;;;;;;17.96;88.73;99370.44;5020573;28;20104;-82
2023/08/04 03:45:32;;;;;;;4.93;0.90;;;;;;;17.96;88.76;99362.38;5004518;28;20060;-81
2023/08/04 03:47:59;;;;;;;1.98;1.25;;;;;;;17.94;88.63;99372.47;4982165;28;20789;-82
2023/08/04 03:50:26;;;;;;;5.45;1.50;;;;;;;17.95;88.92;99370.63;4992008;28;20049;-83
2023/08/04 03:52:52;;;;;;;4.43;1.23;;;;;;;17.93;88.75;99369.97;5012463;28;20046;-83
2023/08/04 03:55:20;;;;;;;2.45;1.00;;;;;;;17.94;88.63;99366.28;4999141;28;20050;-83
2023/08/04 03:57:46;;;;;;;1.67;1.30;;;;;;;17.92;88.71;99369.16;4997317;28;20042;-83
2023/08/04 04:00:13;;;;;;;2.17;1.20;;;;;;;17.92;88.65;99363.78;4990246;28;20133;-83
2023/08/04 04:02:40;;;;;;;3.70;1.20;;;;;;;17.92;88.66;99368.34;5005746;28;20096;-82
2023/08/04 04:05:07;;;;;;;3.67;1.40;;;;;;;17.91;88.36;99369.34;5018885;28;20037;-83
2023/08/04 04:07:34;;;;;;;1.70;1.55;;;;;;;17.90;88.25;99370.38;5009076;28;20053;-83
2023/08/04 04:10:01;;;;;;;5.82;1.33;;;;;;;17.90;88.52;99368.50;5032781;28;20812;-83
2023/08/04 04:12:27;;;;;;;3.65;1.05;;;;;;;17.91;88.61;99370.19;4999884;28;20043;-84
2023/08/04 04:14:54;;;;;;;2.53;1.23;;;;;;;17.92;88.86;99365.66;4986404;28;20128;-82
2023/08/04 04:17:21;;;;;;;2.38;1.23;;;;;;;17.90;88.89;99367.69;5016181;28;20128;-83
2023/08/04 04:19:48;;;;;;;3.05;1.38;;;;;;;17.90;89.00;99370.38;4982951;28;20065;-83
2023/08/04 04:22:15;;;;;;;4.07;1.33;;;;;;;17.90;88.96;99376.56;5018630;28;20053;-83
2023/08/04 04:24:42;;;;;;;4.93;1.40;;;;;;;17.90;88.84;99384.63;5019907;28;20420;-83
2023/08/04 04:27:11;;;;;;;5.63;1.20;;;;;;;17.89;89.03;99384.84;5009086;28;20461;-83
2023/08/04 04:29:38;;;;;;;3.80;1.23;;;;;;;17.88;89.00;99385.84;4936656;28;20125;-83
2023/08/04 04:32:06;;;;;;;7.18;1.30;;;;;;;17.88;89.07;99392.03;4953799;28;20042;-83
2023/08/04 04:34:33;;;;;;;3.10;1.10;;;;;;;17.88;89.30;99389.34;4947586;28;20125;-83
2023/08/04 04:36:59;;;;;;;4.43;1.30;;;;;;;17.89;89.35;99395.59;4968324;28;20046;-83
2023/08/04 04:39:26;;;;;;;3.47;1.38;;;;;;;17.89;89.35;99393.72;5001887;28;20042;-83
2023/08/04 04:41:53;;;;;;;2.00;1.33;;;;;;;17.90;89.18;99395.38;4992080;28;20200;-84
2023/08/04 04:44:20;;;;;;;2.90;1.30;;;;;;;17.90;89.28;99398.06;5017694;28;20041;-83
2023/08/04 04:46:46;;;;;;;2.88;1.13;;;;;;;17.92;89.52;99400.56;5003536;28;20077;-83
2023/08/04 04:49:16;;;;;;;5.75;1.17;;;;;;;17.92;89.60;99403.25;5017734;28;20120;-83
2023/08/04 04:51:43;;;;;;;3.80;1.13;;;;;;;17.93;89.98;99411.09;4993973;28;20046;-84
2023/08/04 04:54:10;;;;;;;5.70;1.30;;;;;;;17.93;89.53;99411.09;4966968;28;20105;-83
2023/08/04 04:56:37;;;;;;;3.13;1.00;;;;;;;17.95;89.72;99417.13;4983610;28;20445;-84
2023/08/04 04:59:04;;;;;;;3.42;1.20;;;;;;;17.95;90.15;99409.06;4962863;28;20405;-83
2023/08/04 05:01:31;;;;;;;2.38;1.20;;;;;;;17.97;90.33;99414.25;4970219;28;20865;-84
2023/08/04 05:03:58;;;;;;;2.60;1.13;;;;;;;17.98;90.30;99418.59;4977916;28;20046;-83
2023/08/04 05:06:25;;;;;;;3.55;1.30;;;;;;;17.98;90.16;99416.72;4982158;28;20129;-84
2023/08/04 05:08:56;;;;;;;2.47;1.50;;;;;;;17.97;90.16;99408.88;4954543;28;20413;-84
2023/08/04 05:11:22;;;;;;;4.55;1.25;;;;;;;18.00;89.95;99413.84;4998213;28;20129;-83
2023/08/04 05:13:49;;;;;;;3.45;1.50;;;;;;;17.99;90.12;99406.84;4970113;28;20115;-84
2023/08/04 05:16:16;;;;;;;2.30;1.20;;;;;;;18.03;90.08;99407.25;5015044;28;20794;-83
2023/08/04 05:18:43;;;;;;;3.65;1.40;;;;;;;18.04;89.94;99412.44;4989213;28;20109;-83
2023/08/04 05:21:10;;;;;;;1.50;1.30;;;;;;;18.02;90.36;99410.97;4957034;28;20042;-83
2023/08/04 05:23:36;;;;;;;6.18;1.55;;;;;;;18.02;90.12;99408.28;4964508;28;20739;-83
2023/08/04 05:26:03;;;;;;;2.35;1.23;;;;;;;18.04;89.97;99415.13;4968922;28;20083;-84
2023/08/04 05:28:32;;;;;;;4.70;1.55;;;;;;;18.03;89.57;99410.78;4957472;28;20055;-83
2023/08/04 05:31:03;;;;;;;4.35;1.67;;;;;;;18.04;89.82;99419.66;4971641;28;20097;-84
2023/08/04 05:33:31;;;;;;;3.92;1.50;;;;;;;18.04;89.77;99419.66;4980423;28;20472;-84
2023/08/04 05:35:59;;;;;;;2.17;1.10;;;;;;;18.03;89.72;99423.38;4987413;28;20050;-84
2023/08/04 05:38:25;;;;;;;5.60;1.20;;;;;;;18.04;89.66;99428.56;4967009;28;20050;-84
2023/08/04 05:40:52;;;;;;;3.15;1.48;;;;;;;18.01;89.78;99418.19;4968853;28;20490;-84
2023/08/04 05:43:19;;;;;;;6.15;1.70;;;;;;;18.00;89.73;99429.97;4963968;28;20046;-84
2023/08/04 05:45:47;;;;;;;3.65;1.17;;;;;;;18.03;90.06;99426.88;4969698;28;20493;-83
2023/08/04 05:48:14;;;;;;;3.38;0.90;;;;;;;18.02;89.74;99427.09;4969530;28;20374;-83
2023/08/04 05:50:41;;;;;;;3.72;1.30;;;;;;;18.04;89.57;99435.78;4955056;28;20046;-83
2023/08/04 05:53:09;;;;;;;4.35;1.10;;;;;;;18.05;90.09;99430.22;4968270;28;20057;-83
2023/08/04 05:55:39;;;;;;;5.43;1.25;;;;;;;18.07;90.33;99430.88;4971653;28;20085;-84
2023/08/04 05:58:05;;;;;;;4.15;1.30;;;;;;;18.06;89.63;99431.88;4999958;28;20669;-85
2023/08/04 06:00:35;;;;;;;2.47;1.23;;;;;;;18.09;89.85;99430.66;4989490;28;20605;-83
2023/08/04 06:03:04;;;;;;;6.40;1.20;;;;;;;18.08;89.87;99432.50;5017546;28;20045;-83
2023/08/04 06:05:31;;;;;;;2.63;1.38;;;;;;;18.08;89.21;99435.19;5000803;28;20045;-83
2023/08/04 06:07:58;;;;;;;2.53;1.25;;;;;;;18.09;89.72;99433.34;4989018;28;20049;-84
2023/08/04 06:10:25;;;;;;;4.78;1.58;;;;;;;18.10;89.63;99438.53;4965830;28;20042;-83
2023/08/04 06:12:51;;;;;;;2.33;1.10;;;;;;;18.11;89.91;99440.19;5033985;28;20041;-83
2023/08/04 06:15:18;;;;;;;3.17;1.27;;;;;;;18.15;89.78;99454.06;5015078;28;20104;-84
2023/08/04 06:17:47;;;;;;;3.60;1.52;;;;;;;18.20;89.53;99446.25;4994061;28;20434;-83
2023/08/04 06:20:14;;;;;;;3.47;1.23;;;;;;;18.25;89.45;99449.19;5019584;28;20133;-84
2023/08/04 06:22:40;;;;;;;5.07;1.42;;;;;;;18.29;89.24;99445.06;4986301;28;20127;-84
2023/08/04 06:25:08;;;;;;;1.88;1.20;;;;;;;18.34;88.72;99445.34;4988190;28;20050;-84
2023/08/04 06:27:35;;;;;;;2.35;1.30;;;;;;;18.39;88.60;99442.03;4964252;28;20440;-84
2023/08/04 06:30:02;;;;;;;4.78;1.30;;;;;;;18.44;88.35;99447.66;5038968;28;20117;-84
2023/08/04 06:32:30;;;;;;;1.52;1.38;;;;;;;18.51;88.35;99447.72;5020174;28;20245;-84
2023/08/04 06:34:57;;;;;;;2.90;1.30;;;;;;;18.56;87.74;99448.78;5020527;28;20042;-84
2023/08/04 06:37:24;;;;;;;4.80;1.20;;;;;;;18.59;87.50;99442.19;5011589;28;20049;-83
2023/08/04 06:39:51;;;;;;;2.90;1.50;;;;;;;18.62;88.13;99439.09;4987397;28;20042;-84
2023/08/04 06:42:18;;;;;;;3.50;1.50;;;;;;;18.66;88.16;99453.81;4993065;28;20046;-83
2023/08/04 06:44:46;;;;;;;4.43;1.27;;;;;;;18.65;88.09;99462.94;5037869;28;20130;-84
2023/08/04 06:47:13;;;;;;;6.45;1.30;;;;;;;18.61;87.91;99457.09;5004915;28;20128;-83
2023/08/04 06:49:41;;;;;;;1.90;1.20;;;;;;;18.60;88.09;99462.69;5018500;28;20038;-84
2023/08/04 06:52:08;;;;;;;3.70;1.77;;;;;;;18.56;88.15;99454.16;4989531;28;20044;-83
2023/08/04 06:54:36;;;;;;;3.00;1.40;;;;;;;18.55;88.15;99463.28;4999088;28;20057;-83
2023/08/04 06:57:03;;;;;;;1.63;1.23;;;;;;;18.58;88.17;99470.13;5015970;28;20506;-83
2023/08/04 06:59:29;;;;;;;2.40;1.15;;;;;;;18.57;88.18;99457.69;5018850;28;20577;-83
2023/08/04 07:01:56;;;;;;;2.50;1.45;;;;;;;18.60;88.30;99454.63;4995925;28;20050;-83
2023/08/04 07:04:23;;;;;;;5.38;1.30;;;;;;;18.65;88.47;99457.56;5014487;28;20571;-83
2023/08/04 07:06:50;;;;;;;4.05;1.45;;;;;;;18.68;88.21;99462.53;5032227;28;20564;-83
2023/08/04 07:09:17;;;;;;;3.88;1.63;;;;;;;18.66;87.62;99454.66;5032627;28;20381;-84
2023/08/04 07:11:43;;;;;;;5.75;1.40;;;;;;;18.70;87.52;99455.09;5001957;28;20048;-83
2023/08/04 07:14:10;;;;;;;3.78;1.63;;;;;;;18.71;87.32;99464.00;4987285;28;20133;-83
2023/08/04 07:16:37;;;;;;;3.10;1.77;;;;;;;18.75;87.41;99466.13;4986331;28;20978;-83
2023/08/04 07:19:04;;;;;;;2.78;1.27;;;;;;;18.78;86.93;99462.22;4986505;28;20038;-83
2023/08/04 07:21:31;;;;;;;3.53;1.17;;;;;;;18.81;87.43;99462.63;4951331;28;20069;-83
2023/08/04 07:23:58;;;;;;;4.90;1.40;;;;;;;18.84;87.96;99467.59;4989349;28;20046;-84
2023/08/04 07:26:25;;;;;;;1.95;0.90;;;;;;;18.87;87.88;99458.31;4984414;28;20406;-83
2023/08/04 07:28:52;;;;;;;3.05;1.17;;;;;;;18.90;88.01;99465.97;4991432;28;20065;-85
2023/08/04 07:31:19;;;;;;;2.75;1.08;;;;;;;18.93;88.03;99468.28;5035693;28;20042;-83
2023/08/04 07:33:46;;;;;;;4.40;1.17;;;;;;;18.93;88.40;99467.44;5033209;28;20038;-83
2023/08/04 07:36:13;;;;;;;1.77;1.10;;;;;;;18.91;87.85;99464.97;5026091;28;20522;-83
2023/08/04 07:38:39;;;;;;;1.02;0.93;;;;;;;18.90;87.47;99465.97;4990329;28;20455;-84
2023/08/04 07:41:06;;;;;;;1.73;1.23;;;;;;;18.87;87.78;99469.91;4988135;28;20045;-83
2023/08/04 07:43:33;;;;;;;2.35;1.35;;;;;;;18.86;87.83;99473.63;5016347;28;20042;-84
2023/08/04 07:46:00;;;;;;;2.28;1.10;;;;;;;18.86;87.95;99476.31;5017675;28;20103;-84
2023/08/04 07:48:27;;;;;;;3.13;1.00;;;;;;;18.85;87.89;99476.50;5006818;28;20137;-86
2023/08/04 07:50:53;;;;;;;2.65;0.90;;;;;;;18.82;88.09;99483.09;5016233;28;20057;-85
2023/08/04 07:53:22;;;;;;;3.90;1.42;;;;;;;18.80;87.60;99479.81;5019795;28;21589;-83
2023/08/04 07:55:56;;;;;;;2.13;1.10;;;;;;;18.78;87.36;99487.25;4997481;28;20141;-83
2023/08/04 07:58:23;;;;;;;2.35;1.20;;;;;;;18.81;87.64;99478.78;4971062;28;20173;-84
2023/08/04 08:00:50;;;;;;;2.10;1.40;;;;;;;18.83;87.77;99483.97;4964970;28;20297;-83
2023/08/04 08:03:17;;;;;;;4.13;1.10;;;;;;;18.87;87.71;99480.66;4968768;28;20864;-83
2023/08/04 08:05:46;;;;;;;3.15;1.50;;;;;;;18.92;87.78;99481.94;4981633;28;20051;-83
2023/08/04 08:08:12;;;;;;;4.25;1.98;;;;;;;18.95;87.73;99497.69;4978334;28;20129;-84
2023/08/04 08:10:39;;;;;;;3.03;1.60;;;;;;;18.95;87.36;99492.28;4982699;28;20716;-86
2023/08/04 08:13:07;;;;;;;2.92;2.15;;;;;;;18.92;87.04;99490.00;5004230;28;20141;-87
2023/08/04 08:15:35;;;;;;;3.15;2.25;;;;;;;18.94;87.98;99496.84;5015866;28;20041;-88
2023/08/04 08:18:03;;;;;;;2.60;1.75;;;;;;;18.93;88.62;99497.88;4982241;28;20074;-87
2023/08/04 08:20:30;;;;;;;2.97;1.90;;;;;;;18.94;89.61;99496.84;4977393;28;20561;-87
2023/08/04 08:22:57;;;;;;;2.42;1.50;;;;;;;18.94;89.23;99493.34;4931051;28;20414;-88
2023/08/04 08:25:23;;;;;;;4.60;1.70;;;;;;;18.96;90.13;99500.19;4983891;28;20045;-84
2023/08/04 08:27:50;;;;;;;2.90;1.38;;;;;;;18.98;89.95;99500.81;4968335;28;20100;-85
2023/08/04 08:30:17;;;;;;;5.18;1.88;;;;;;;19.03;89.96;99502.88;4965594;28;20095;-84
2023/08/04 08:32:44;;;;;;;4.40;1.85;;;;;;;19.03;88.52;99501.06;5018091;28;20397;-83
2023/08/04 08:35:11;;;;;;;4.40;1.55;;;;;;;19.06;88.79;99507.91;5016162;28;20260;-83
2023/08/04 08:37:37;;;;;;;2.78;1.40;;;;;;;19.11;89.62;99501.88;5000338;28;20128;-84
2023/08/04 08:40:05;;;;;;;1.67;1.10;;;;;;;19.12;88.53;99499.00;5002589;28;20069;-83
2023/08/04 08:42:33;;;;;;;2.88;1.42;;;;;;;19.19;88.76;99504.44;5032296;28;20186;-84
2023/08/04 08:45:01;;;;;;;2.47;1.55;;;;;;;19.21;88.90;99503.22;5003570;28;20046;-83
2023/08/04 08:47:36;;;;;;;1.60;1.50;;;;;;;19.23;88.60;99490.38;4986651;28;20042;-83
2023/08/04 08:50:05;;;;;;;4.43;1.60;;;;;;;19.36;88.99;99489.63;4998339;28;20141;-83
2023/08/04 08:52:35;;;;;;;3.42;1.77;;;;;;;19.43;88.87;99479.66;5001471;28;20119;-84
2023/08/04 08:55:03;;;;;;;4.28;2.00;;;;;;;19.48;88.88;99476.38;5019846;28;20132;-84
2023/08/04 08:57:29;;;;;;;3.60;1.73;;;;;;;19.55;88.43;99466.47;5019785;28;20397;-84
2023/08/04 09:00:00;;;;;;;3.53;2.05;;;;;;;19.58;88.78;99478.69;4983146;28;20042;-84
2023/08/04 09:02:27;;;;;;;2.75;1.88;;;;;;;19.61;88.18;99468.31;4990592;28;20057;-84
2023/08/04 09:04:54;;;;;;;4.88;2.05;;;;;;;19.63;88.00;99468.97;4989867;28;20575;-84
2023/08/04 09:07:23;;;;;;;3.30;1.65;;;;;;;19.64;87.60;99476.03;5005679;28;20053;-84
2023/08/04 09:09:49;;;;;;;3.40;1.55;;;;;;;19.61;87.28;99465.63;4989791;28;20133;-84
2023/08/04 09:12:16;;;;;;;3.85;1.67;;;;;;;19.60;87.46;99468.56;5027821;28;20103;-85
2023/08/04 09:14:51;;;;;;;2.83;1.90;;;;;;;19.56;86.01;99467.28;5023952;28;20571;-84
2023/08/04 09:17:28;;;;;;;2.53;1.42;;;;;;;19.50;84.86;99464.38;4987034;28;20048;-85
2023/08/04 09:19:56;;;;;;;2.45;1.55;;;;;;;19.52;85.52;99474.94;5023443;28;20041;-84
2023/08/04 09:22:24;;;;;;;1.70;1.30;;;;;;;19.51;85.33;99484.03;5005876;28;20104;-84
2023/08/04 09:25:01;;;;;;;1.30;1.00;;;;;;;19.40;84.07;99487.34;4981404;28;20124;-84
2023/08/04 09:27:38;;;;;;;2.47;1.35;;;;;;;19.39;85.44;99494.59;4988454;28;20536;-83
2023/08/04 09:30:07;;;;;;;3.55;1.35;;;;;;;19.37;86.28;99493.13;4992142;28;20097;-84
2023/08/04 09:32:41;;;;;;;2.22;0.88;;;;;;;19.33;86.75;99499.94;4964643;28;20046;-83
2023/08/04 09:35:08;;;;;;;5.05;0.90;;;;;;;19.32;87.88;99506.38;4982159;28;20072;-82
2023/08/04 09:37:37;;;;;;;2.10;0.70;;;;;;;19.30;87.97;99509.25;5006346;28;20073;-82
2023/08/04 09:40:12;;;;;;;1.67;0.70;;;;;;;19.27;88.73;99510.47;5022347;28;20046;-82
2023/08/04 09:42:39;;;;;;;1.80;0.90;;;;;;;19.29;90.06;99504.91;4979016;28;20155;-81
2023/08/04 09:45:08;;;;;;;4.25;1.40;;;;;;;19.33;90.02;99498.06;4995576;28;20549;-81
2023/08/04 09:47:34;;;;;;;3.25;1.40;;;;;;;19.38;90.98;99486.69;4965924;28;20447;-82
2023/08/04 09:50:08;;;;;;;1.52;1.20;;;;;;;19.42;91.34;99480.72;4985614;28;20383;-82
2023/08/04 09:52:35;;;;;;;1.13;0.90;;;;;;;19.51;92.01;99486.75;4968561;28;20047;-83
2023/08/04 09:55:02;;;;;;;2.75;1.10;;;;;;;19.54;92.36;99483.66;5018836;28;20042;-82
2023/08/04 09:57:29;;;;;;;1.67;0.80;;;;;;;19.58;92.75;99489.47;4988608;28;20541;-82
2023/08/04 09:59:56;;;;;;;1.92;0.98;;;;;;;19.62;92.80;99490.72;5020155;28;20038;-82
2023/08/04 10:02:23;;;;;;;3.17;1.10;;;;;;;19.62;92.52;99490.72;5005254;28;20124;-82
2023/08/04 10:04:51;;;;;;;3.50;1.63;;;;;;;19.63;92.86;99495.91;5005674;28;20042;-82
2023/08/04 10:07:19;;;;;;;3.95;1.60;;;;;;;19.60;91.28;99496.31;4976604;28;20046;-82
2023/08/04 10:09:48;;;;;;;1.77;1.30;;;;;;;19.54;90.58;99505.22;5020804;28;21357;-82
2023/08/04 10:12:17;;;;;;;3.67;1.45;;;;;;;19.52;90.00;99489.25;4976453;28;23066;-82
2023/08/04 10:14:44;;;;;;;2.45;1.58;;;;;;;19.51;89.78;99492.13;5016793;28;20131;-82
2023/08/04 10:17:11;;;;;;;1.92;1.73;;;;;;;19.51;90.21;99479.50;4990962;28;20049;-82
2023/08/04 10:19:38;;;;;;;2.30;1.67;;;;;;;19.53;90.81;99488.19;5027975;28;20038;-83
2023/08/04 10:22:07;;;;;;;2.35;1.52;;;;;;;19.51;87.66;99489.44;4999169;28;20042;-83
2023/08/04 10:24:36;;;;;;;2.38;1.40;;;;;;;19.48;87.15;99495.22;5004725;28;20076;-83
2023/08/04 10:27:19;;;;;;;3.45;1.60;;;;;;;19.27;86.28;99504.25;4989615;28;20042;-83
2023/08/04 10:30:00;;;;;;;5.50;2.28;;;;;;;19.27;86.56;99496.19;4968654;28;20058;-83
2023/08/04 10:32:35;;;;;;;2.88;2.15;;;;;;;19.32;85.92;99499.09;4966649;28;20042;-82
2023/08/04 10:35:21;;;;;;;3.15;2.42;;;;;;;19.37;87.55;99493.13;4980727;28;20042;-83
2023/08/04 10:37:50;;;;;;;4.55;2.33;;;;;;;19.48;88.34;99496.06;4966836;28;20471;-83
2023/08/04 10:40:28;;;;;;;2.90;2.20;;;;;;;19.45;86.68;99503.72;4987055;28;20046;-83
2023/08/04 10:43:06;;;;;;;2.83;2.53;;;;;;;19.42;86.11;99509.50;4991049;28;20038;-83
2023/08/04 10:45:52;;;;;;;2.60;2.28;;;;;;;19.39;87.35;99505.34;4967757;28;20466;-84
2023/08/04 10:48:21;;;;;;;2.65;2.17;;;;;;;19.49;87.22;99500.44;4998927;28;20077;-82
2023/08/04 10:50:51;;;;;;;5.88;2.08;;;;;;;19.49;86.54;99500.44;5037262;28;20519;-83
2023/08/04 10:53:18;;;;;;;2.50;2.10;;;;;;;19.51;86.90;99509.13;5018448;28;20524;-83
2023/08/04 10:55:55;;;;;;;6.78;2.38;;;;;;;19.45;85.36;99503.72;4978281;28;20124;-83
2023/08/04 10:58:23;;;;;;;4.10;2.50;;;;;;;19.58;86.86;99501.06;4969381;28;20517;-84
2023/08/04 11:00:55;;;;;;;2.83;2.30;;;;;;;19.53;86.90;99501.66;4986343;28;20077;-83
2023/08/04 11:03:28;;;;;;;3.30;2.28;;;;;;;19.48;84.95;99501.44;4981700;28;20038;-83
2023/08/04 11:05:55;;;;;;;;;;;;;;;19.38;85.76;99519.84;5000563;28;20050;-83
2023/08/04 11:08:23;;;;;;;4.85;2.22;;;;;;;19.47;86.23;99512.44;4986852;28;19933;-83
2023/08/04 11:10:55;;;;;;;2.60;2.20;;;;;;;19.37;85.53;99510.09;4976864;28;20057;-83
2023/08/04 11:13:22;;;;;;;2.30;2.10;;;;;;;19.43;86.06;99503.09;4956016;28;20047;-83
2023/08/04 11:15:50;;;;;;;4.00;1.73;;;;;;;19.48;86.54;99511.38;4952181;28;20944;-84
2023/08/04 11:18:26;;;;;;;6.57;2.00;;;;;;;19.37;84.61;99520.88;4969585;28;20398;-84
2023/08/04 11:20:53;;;;;;;3.95;1.92;;;;;;;19.43;85.87;99522.75;4985239;28;20093;-83
2023/08/04 11:23:28;;;;;;;2.40;1.80;;;;;;;19.37;84.80;99526.25;4965093;28;20042;-83
2023/08/04 11:25:55;;;;;;;1.90;1.80;;;;;;;19.40;85.40;99525.03;4942397;28;20524;-83
2023/08/04 11:28:23;;;;;;;2.60;1.80;;;;;;;19.38;85.54;99527.91;4985711;28;20482;-84
2023/08/04 11:30:57;;;;;;;1.70;1.60;;;;;;;19.36;84.63;99529.13;4971396;28;20049;-83
2023/08/04 11:33:24;;;;;;;2.10;1.57;;;;;;;19.36;84.54;99532.69;4984139;28;20569;-84
2023/08/04 11:35:50;;;;;;;1.92;1.67;;;;;;;19.35;83.75;99536.41;5017481;28;20448;-84
2023/08/04 11:38:17;;;;;;;2.13;1.67;;;;;;;19.41;84.51;99538.31;5003164;28;20050;-84